createdAt,value
2023-04-12T00:00:32.356Z,100621.59
2023-04-12T00:03:04.716Z,100611.16
2023-04-12T00:05:34.595Z,100604.22
2023-04-12T00:08:05.173Z,100593.78
2023-04-12T00:10:33.599Z,100579.84
2023-04-12T00:13:02.212Z,100572.94
2023-04-12T00:15:31.049Z,100560.78
2023-04-12T00:17:59.449Z,100563.41
2023-04-12T00:20:29.276Z,100554.72
2023-04-12T00:22:58.062Z,100555.56
2023-04-12T00:25:26.717Z,100546.91
2023-04-12T00:27:55.300Z,100542.56
2023-04-12T00:30:23.796Z,100534.72
2023-04-12T00:32:53.111Z,100537.38
2023-04-12T00:35:30.374Z,100533.88
2023-04-12T00:38:02.953Z,100519.97
2023-04-12T00:40:31.408Z,100511.28
2023-04-12T00:42:59.730Z,100516.53
2023-04-12T00:45:28.486Z,100508.69
2023-04-12T00:47:57.598Z,100492.16
2023-04-12T00:50:26.688Z,100496.50
2023-04-12T00:52:56.761Z,100494.81
2023-04-12T00:55:26.746Z,100489.59
2023-04-12T00:57:55.383Z,100484.38
2023-04-12T01:00:24.289Z,100475.69
2023-04-12T01:02:53.743Z,100473.09
2023-04-12T01:05:25.604Z,100464.38
2023-04-12T01:08:06.240Z,100457.44
2023-04-12T01:10:46.844Z,100441.75
2023-04-12T01:13:27.958Z,100445.25
2023-04-12T01:16:05.673Z,100447.84
2023-04-12T01:18:40.912Z,100435.66
2023-04-12T01:21:15.822Z,100439.16
2023-04-12T01:24:22.539Z,100435.69
2023-04-12T01:26:53.671Z,100426.13
2023-04-12T01:29:28.649Z,100422.66
2023-04-12T01:32:02.778Z,100414.78
2023-04-12T01:34:34.706Z,100420.06
2023-04-12T01:37:04.773Z,100406.09
2023-04-12T01:39:35.201Z,100398.28
2023-04-12T01:42:03.552Z,100383.50
2023-04-12T01:44:33.327Z,100371.28
2023-04-12T01:47:04.168Z,100371.28
2023-04-12T01:49:41.432Z,100370.41
2023-04-12T01:52:16.104Z,100363.44
2023-04-12T01:54:46.173Z,100359.09
2023-04-12T01:57:16.675Z,100356.50
2023-04-12T01:59:48.981Z,100355.63
2023-04-12T02:02:18.317Z,100353.88
2023-04-12T02:04:48.338Z,100341.69
2023-04-12T02:07:20.952Z,100336.44
2023-04-12T02:09:49.701Z,100334.72
2023-04-12T02:12:18.402Z,100328.63
2023-04-12T02:14:51.940Z,100319.03
2023-04-12T02:17:27.083Z,100309.44
2023-04-12T02:19:55.839Z,100296.38
2023-04-12T02:22:24.276Z,100292.00
2023-04-12T02:24:53.226Z,100289.38
2023-04-12T02:27:22.535Z,100278.91
2023-04-12T02:29:52.978Z,100275.44
2023-04-12T02:32:22.626Z,100268.47
2023-04-12T02:34:52.929Z,100271.97
2023-04-12T02:37:24.811Z,100261.50
2023-04-12T02:39:56.856Z,100262.38
2023-04-12T02:42:27.960Z,100263.22
2023-04-12T02:44:58.020Z,100262.34
2023-04-12T02:47:29.151Z,100257.97
2023-04-12T02:49:58.831Z,100243.16
2023-04-12T02:52:29.541Z,100238.75
2023-04-12T02:54:59.517Z,100226.59
2023-04-12T02:57:28.226Z,100217.84
2023-04-12T02:59:58.703Z,100208.25
2023-04-12T03:02:27.925Z,100199.53
2023-04-12T03:04:59.610Z,100192.56
2023-04-12T03:07:28.055Z,100193.47
2023-04-12T03:09:57.032Z,100189.97
2023-04-12T03:12:26.022Z,100196.06
2023-04-12T03:14:55.208Z,100184.75
2023-04-12T03:17:25.149Z,100178.63
2023-04-12T03:19:54.539Z,100175.13
2023-04-12T03:22:25.927Z,100168.16
2023-04-12T03:24:55.611Z,100162.06
2023-04-12T03:27:24.124Z,100146.38
2023-04-12T03:29:53.179Z,100140.25
2023-04-12T03:32:22.486Z,100134.16
2023-04-12T03:34:52.566Z,100130.66
2023-04-12T03:37:21.422Z,100128.03
2023-04-12T03:39:50.146Z,100117.53
2023-04-12T03:42:29.958Z,100120.16
2023-04-12T03:45:01.321Z,100124.50
2023-04-12T03:47:29.883Z,100104.44
2023-04-12T03:52:39.610Z,100095.72
2023-04-12T03:55:09.518Z,100081.75
2023-04-12T03:57:37.934Z,100079.13
2023-04-12T04:00:10.057Z,100066.06
2023-04-12T04:02:38.680Z,100061.69
2023-04-12T04:05:09.720Z,100055.59
2023-04-12T04:07:40.803Z,100043.41
2023-04-12T04:10:11.113Z,100039.91
2023-04-12T04:12:39.477Z,100032.94
2023-04-12T04:15:09.164Z,100028.56
2023-04-12T04:17:37.598Z,100025.97
2023-04-12T04:20:09.355Z,100020.75
2023-04-12T04:22:38.378Z,100020.75
2023-04-12T04:25:08.219Z,100026.00
2023-04-12T04:27:38.604Z,100026.88
2023-04-12T04:30:10.132Z,100019.00
2023-04-12T04:32:38.698Z,100015.53
2023-04-12T04:35:10.137Z,100014.69
2023-04-12T04:37:40.819Z,100005.97
2023-04-12T04:40:24.964Z,100002.50
2023-04-12T04:42:55.971Z,99996.41
2023-04-12T04:45:26.753Z,99989.44
2023-04-12T04:47:55.838Z,99998.19
2023-04-12T04:50:28.230Z,99997.38
2023-04-12T04:52:57.219Z,99996.50
2023-04-12T04:55:26.251Z,99980.84
2023-04-12T04:57:54.973Z,99980.00
2023-04-12T05:00:25.981Z,99979.13
2023-04-12T05:02:55.080Z,99980.88
2023-04-12T05:05:26.220Z,99982.63
2023-04-12T05:07:55.296Z,99968.69
2023-04-12T05:10:24.032Z,99972.16
2023-04-12T05:12:52.804Z,99973.94
2023-04-12T05:15:22.093Z,99968.69
2023-04-12T05:17:51.222Z,99963.47
2023-04-12T05:20:20.082Z,99953.00
2023-04-12T05:22:50.099Z,99952.16
2023-04-12T05:25:48.379Z,99945.19
2023-04-12T05:28:17.993Z,99940.84
2023-04-12T05:30:46.761Z,99944.31
2023-04-12T05:33:15.944Z,99938.19
2023-04-12T05:35:44.506Z,99945.16
2023-04-12T05:38:15.287Z,99929.44
2023-04-12T05:40:45.161Z,99929.44
2023-04-12T05:43:13.718Z,99932.94
2023-04-12T05:45:42.541Z,99925.94
2023-04-12T05:48:11.178Z,99918.97
2023-04-12T05:50:39.664Z,99915.47
2023-04-12T05:53:08.302Z,99912.91
2023-04-12T05:55:38.390Z,99904.16
2023-04-12T05:58:07.210Z,99907.69
2023-04-12T06:00:35.745Z,99910.28
2023-04-12T06:03:04.806Z,99903.34
2023-04-12T06:05:35.275Z,99906.81
2023-04-12T06:08:05.403Z,99905.97
2023-04-12T06:10:34.046Z,99899.84
2023-04-12T06:13:03.766Z,99891.13
2023-04-12T06:15:33.606Z,99886.75
2023-04-12T06:18:02.423Z,99885.00
2023-04-12T06:20:30.924Z,99871.03
2023-04-12T06:22:59.333Z,99884.09
2023-04-12T06:25:28.154Z,99877.13
2023-04-12T06:27:57.146Z,99867.56
2023-04-12T06:30:27.983Z,99866.66
2023-04-12T06:32:56.660Z,99857.97
2023-04-12T06:35:25.923Z,99859.69
2023-04-12T06:37:55.168Z,99856.22
2023-04-12T06:40:23.611Z,99848.41
2023-04-12T06:42:52.691Z,99843.19
2023-04-12T06:45:21.463Z,99844.06
2023-04-12T06:47:52.676Z,99846.69
2023-04-12T06:50:21.304Z,99834.47
2023-04-12T06:52:50.238Z,99834.50
2023-04-12T06:55:20.208Z,99833.63
2023-04-12T06:57:52.125Z,99823.19
2023-04-12T07:00:22.087Z,99834.53
2023-04-12T07:02:52.753Z,99823.16
2023-04-12T07:05:22.758Z,99831.91
2023-04-12T07:07:52.509Z,99821.44
2023-04-12T07:10:21.480Z,99823.16
2023-04-12T07:12:50.109Z,99824.91
2023-04-12T07:15:18.855Z,99820.56
2023-04-12T07:17:47.277Z,99819.66
2023-04-12T07:20:17.629Z,99817.91
2023-04-12T07:22:46.337Z,99818.78
2023-04-12T07:25:14.950Z,99812.66
2023-04-12T07:27:43.301Z,99810.09
2023-04-12T07:30:15.028Z,99809.19
2023-04-12T07:32:43.592Z,99797.88
2023-04-12T07:35:12.888Z,99798.72
2023-04-12T07:37:43.108Z,99797.88
2023-04-12T07:40:11.663Z,99792.66
2023-04-12T07:42:40.105Z,99783.06
2023-04-12T07:45:27.548Z,99790.91
2023-04-12T07:47:56.180Z,99786.56
2023-04-12T07:50:25.160Z,99776.97
2023-04-12T07:52:55.028Z,99777.88
2023-04-12T07:55:23.904Z,99778.72
2023-04-12T07:57:53.043Z,99770.88
2023-04-12T08:00:29.165Z,99780.47
2023-04-12T08:02:58.437Z,99756.09
2023-04-12T08:05:27.807Z,99762.19
2023-04-12T08:08:00.132Z,99763.03
2023-04-12T08:10:28.726Z,99763.00
2023-04-12T08:12:57.925Z,99766.47
2023-04-12T08:15:27.355Z,99759.47
2023-04-12T08:17:56.237Z,99762.03
2023-04-12T08:20:24.995Z,99762.94
2023-04-12T08:22:55.019Z,99762.03
2023-04-12T08:25:24.978Z,99764.59
2023-04-12T08:27:53.679Z,99765.41
2023-04-12T08:30:26.983Z,99759.25
2023-04-12T08:32:56.236Z,99755.69
2023-04-12T08:35:25.154Z,99750.41
2023-04-12T08:37:53.466Z,99759.97
2023-04-12T08:40:24.128Z,99754.66
2023-04-12T08:42:55.185Z,99747.56
2023-04-12T08:45:27.525Z,99738.72
2023-04-12T08:47:56.568Z,99733.34
2023-04-12T08:50:27.350Z,99742.81
2023-04-12T08:52:57.777Z,99739.31
2023-04-12T08:55:28.285Z,99741.03
2023-04-12T08:57:58.609Z,99747.91
2023-04-12T09:00:28.422Z,99732.03
2023-04-12T09:02:57.617Z,99733.63
2023-04-12T09:05:31.322Z,99734.34
2023-04-12T09:08:00.211Z,99729.84
2023-04-12T09:10:38.741Z,99715.03
2023-04-12T09:13:08.099Z,99730.78
2023-04-12T09:15:36.945Z,99733.44
2023-04-12T09:18:08.517Z,99730.81
2023-04-12T09:20:38.378Z,99732.63
2023-04-12T09:23:21.575Z,99735.22
2023-04-12T09:25:53.437Z,99745.69
2023-04-12T09:28:28.846Z,99744.00
2023-04-12T09:30:59.142Z,99739.75
2023-04-12T09:33:36.613Z,99735.50
2023-04-12T09:36:09.379Z,99720.72
2023-04-12T09:38:39.492Z,99733.84
2023-04-12T09:41:25.026Z,99727.78
2023-04-12T09:43:56.694Z,99722.50
2023-04-12T09:46:26.668Z,99724.97
2023-04-12T09:48:59.172Z,99724.84
2023-04-12T09:51:32.765Z,99723.88
2023-04-12T09:54:03.889Z,99716.75
2023-04-12T09:56:36.732Z,99726.19
2023-04-12T09:59:07.761Z,99734.69
2023-04-12T10:01:40.988Z,99729.41
2023-04-12T10:04:11.033Z,99730.19
2023-04-12T10:06:41.573Z,99723.06
2023-04-12T10:09:10.118Z,99722.69
2023-04-12T10:11:41.947Z,99722.25
2023-04-12T10:14:12.174Z,99706.94
2023-04-12T10:16:42.738Z,99712.59
2023-04-12T10:19:14.539Z,99709.38
2023-04-12T10:21:43.190Z,99699.81
2023-04-12T10:24:12.260Z,99704.97
2023-04-12T10:26:44.995Z,99698.09
2023-04-12T10:29:27.773Z,99694.97
2023-04-12T10:31:58.218Z,99696.63
2023-04-12T10:34:29.794Z,99688.59
2023-04-12T10:37:00.062Z,99696.53
2023-04-12T10:39:43.702Z,99694.31
2023-04-12T10:42:27.267Z,99686.25
2023-04-12T10:44:59.640Z,99677.16
2023-04-12T10:48:02.064Z,99680.44
2023-04-12T10:50:33.107Z,99684.69
2023-04-12T10:53:25.276Z,99680.84
2023-04-12T10:55:54.228Z,99680.53
2023-04-12T10:58:59.480Z,99683.44
2023-04-12T11:01:29.213Z,99680.78
2023-04-12T11:04:19.131Z,99680.44
2023-04-12T11:07:01.858Z,99677.00
2023-04-12T11:09:38.897Z,99684.84
2023-04-12T11:12:15.884Z,99684.22
2023-04-12T11:14:51.256Z,99679.34
2023-04-12T11:17:28.059Z,99673.84
2023-04-12T11:20:00.241Z,99675.28
2023-04-12T11:22:31.182Z,99678.16
2023-04-12T11:25:01.865Z,99674.47
2023-04-12T11:27:33.100Z,99671.31
2023-04-12T11:30:03.757Z,99676.56
2023-04-12T11:32:34.178Z,99669.94
2023-04-12T11:35:03.150Z,99666.53
2023-04-12T11:37:32.887Z,99669.63
2023-04-12T11:40:01.298Z,99665.19
2023-04-12T11:42:30.478Z,99665.13
2023-04-12T11:45:04.419Z,99667.44
2023-04-12T11:47:36.847Z,99666.13
2023-04-12T11:50:06.044Z,99664.25
2023-04-12T11:52:35.853Z,99665.75
2023-04-12T11:55:08.777Z,99666.44
2023-04-12T11:57:37.263Z,99669.56
2023-04-12T12:00:07.345Z,99670.09
2023-04-12T12:02:43.696Z,99653.81
2023-04-12T12:05:18.374Z,99659.09
2023-04-12T12:07:47.046Z,99654.75
2023-04-12T12:10:27.454Z,99656.13
2023-04-12T12:13:05.455Z,99657.91
2023-04-12T12:15:34.137Z,99656.19
2023-04-12T12:18:04.022Z,99656.78
2023-04-12T12:20:32.829Z,99647.59
2023-04-12T12:23:01.370Z,99648.63
2023-04-12T12:25:31.588Z,99652.75
2023-04-12T12:28:00.224Z,99644.28
2023-04-12T12:30:32.102Z,99650.13
2023-04-12T12:33:00.799Z,99649.97
2023-04-12T12:35:36.157Z,99646.41
2023-04-12T12:38:09.001Z,99649.50
2023-04-12T12:40:37.531Z,99648.19
2023-04-12T12:43:07.677Z,99638.88
2023-04-12T12:45:38.967Z,99652.16
2023-04-12T12:48:10.433Z,99647.06
2023-04-12T12:50:42.214Z,99648.13
2023-04-12T12:53:11.449Z,99651.53
2023-04-12T12:55:41.526Z,99654.13
2023-04-12T12:58:10.338Z,99648.97
2023-04-12T13:00:38.980Z,99648.00
2023-04-12T13:03:07.969Z,99648.66
2023-04-12T13:05:36.901Z,99653.75
2023-04-12T13:08:07.543Z,99653.66
2023-04-12T13:10:36.018Z,99648.28
2023-04-12T13:13:04.930Z,99648.03
2023-04-12T13:15:33.590Z,99652.16
2023-04-12T13:18:02.365Z,99653.00
2023-04-12T13:20:31.416Z,99641.13
2023-04-12T13:23:00.665Z,99636.69
2023-04-12T13:25:30.434Z,99651.41
2023-04-12T13:27:58.847Z,99638.56
2023-04-12T13:30:27.921Z,99645.28
2023-04-12T13:32:56.507Z,99652.53
2023-04-12T13:35:25.256Z,99644.97
2023-04-12T13:37:53.733Z,99642.66
2023-04-12T13:40:22.895Z,99638.97
2023-04-12T13:42:53.081Z,99654.75
2023-04-12T13:45:21.835Z,99641.69
2023-04-12T13:47:50.323Z,99635.75
2023-04-12T13:50:19.143Z,99640.25
2023-04-12T13:52:47.588Z,99621.81
2023-04-12T13:55:16.286Z,99611.66
2023-04-12T13:57:44.676Z,99630.66
2023-04-12T14:00:22.690Z,99626.97
2023-04-12T14:02:51.831Z,99620.38
2023-04-12T14:05:21.354Z,99617.00
2023-04-12T14:07:50.233Z,99625.66
2023-04-12T14:10:19.026Z,99630.03
2023-04-12T14:12:47.371Z,99640.44
2023-04-12T14:15:17.796Z,99637.81
2023-04-12T14:17:46.707Z,99653.16
2023-04-12T14:20:16.685Z,99649.97
2023-04-12T14:22:47.915Z,99653.16
2023-04-12T14:25:16.371Z,99655.56
2023-04-12T14:27:45.976Z,99658.94
2023-04-12T14:30:18.383Z,99666.50
2023-04-12T14:32:47.989Z,99673.28
2023-04-12T14:35:17.310Z,99664.56
2023-04-12T14:37:46.839Z,99683.03
2023-04-12T14:40:17.556Z,99672.59
2023-04-12T14:42:46.638Z,99678.22
2023-04-12T14:45:17.631Z,99662.34
2023-04-12T14:47:46.053Z,99660.22
2023-04-12T14:50:14.860Z,99663.97
2023-04-12T14:52:43.465Z,99657.69
2023-04-12T14:55:12.046Z,99651.72
2023-04-12T14:57:41.467Z,99642.69
2023-04-12T15:00:15.499Z,99650.75
2023-04-12T15:02:49.546Z,99640.28
2023-04-12T15:05:18.532Z,99657.31
2023-04-12T15:07:48.519Z,99643.84
2023-04-12T15:10:18.963Z,99651.41
2023-04-12T15:12:57.106Z,99650.97
2023-04-12T15:15:26.392Z,99641.59
2023-04-12T15:17:59.422Z,99638.56
2023-04-12T15:20:28.567Z,99643.72
2023-04-12T15:22:57.527Z,99639.97
2023-04-12T15:25:26.962Z,99640.19
2023-04-12T15:27:56.119Z,99631.06
2023-04-12T15:30:25.206Z,99630.63
2023-04-12T15:32:55.233Z,99640.59
2023-04-12T15:35:26.889Z,99638.91
2023-04-12T15:37:56.756Z,99657.09
2023-04-12T15:40:26.146Z,99648.75
2023-04-12T15:42:55.666Z,99650.69
2023-04-12T15:45:25.211Z,99646.59
2023-04-12T15:47:55.357Z,99652.03
2023-04-12T15:50:23.741Z,99642.44
2023-04-12T15:52:55.378Z,99653.56
2023-04-12T15:55:24.471Z,99645.34
2023-04-12T15:57:54.218Z,99647.50
2023-04-12T16:00:26.526Z,99653.00
2023-04-12T16:02:57.533Z,99650.44
2023-04-12T16:05:27.410Z,99653.88
2023-04-12T16:07:56.905Z,99664.94
2023-04-12T16:10:26.667Z,99677.66
2023-04-12T16:12:56.597Z,99686.44
2023-04-12T16:15:25.437Z,99683.91
2023-04-12T16:17:56.418Z,99686.34
2023-04-12T16:20:30.836Z,99693.81
2023-04-12T16:22:59.781Z,99699.41
2023-04-12T16:25:29.281Z,99704.91
2023-04-12T16:28:02.317Z,99707.84
2023-04-12T16:30:32.171Z,99716.03
2023-04-12T16:33:05.307Z,99718.00
2023-04-12T16:35:34.509Z,99721.66
2023-04-12T16:38:04.612Z,99728.69
2023-04-12T16:40:33.871Z,99736.63
2023-04-12T16:43:03.323Z,99732.44
2023-04-12T16:45:32.322Z,99743.03
2023-04-12T16:48:03.151Z,99750.13
2023-04-12T16:50:32.082Z,99746.75
2023-04-12T16:53:01.715Z,99752.03
2023-04-12T16:55:31.178Z,99752.84
2023-04-12T16:58:00.221Z,99742.31
2023-04-12T17:00:29.157Z,99738.03
2023-04-12T17:02:58.514Z,99740.78
2023-04-12T17:05:28.654Z,99736.53
2023-04-12T17:07:57.520Z,99743.81
2023-04-12T17:10:28.606Z,99736.91
2023-04-12T17:12:58.765Z,99732.66
2023-04-12T17:15:30.005Z,99730.09
2023-04-12T17:18:04.321Z,99723.34
2023-04-12T17:20:34.790Z,99739.22
2023-04-12T17:23:04.329Z,99733.19
2023-04-12T17:25:33.539Z,99732.47
2023-04-12T17:28:05.662Z,99731.72
2023-04-12T17:30:34.885Z,99730.97
2023-04-12T17:33:03.420Z,99735.34
2023-04-12T17:35:33.338Z,99737.13
2023-04-12T17:38:01.776Z,99729.31
2023-04-12T17:40:30.497Z,99726.81
2023-04-12T17:42:58.917Z,99726.84
2023-04-12T17:45:28.180Z,99731.34
2023-04-12T17:47:56.580Z,99735.78
2023-04-12T17:50:25.579Z,99738.53
2023-04-12T17:52:56.921Z,99737.75
2023-04-12T17:55:26.740Z,99739.56
2023-04-12T17:58:00.626Z,99735.03
2023-04-12T18:00:29.314Z,99735.06
2023-04-12T18:02:58.153Z,99736.09
2023-04-12T18:05:27.741Z,99738.06
2023-04-12T18:07:58.257Z,99744.34
2023-04-12T18:10:27.667Z,99740.16
2023-04-12T18:12:56.539Z,99743.78
2023-04-12T18:15:25.332Z,99739.50
2023-04-12T18:17:53.978Z,99731.72
2023-04-12T18:20:23.137Z,99738.78
2023-04-12T18:22:51.723Z,99743.28
2023-04-12T18:25:22.554Z,99736.38
2023-04-12T18:27:52.548Z,99738.31
2023-04-12T18:30:21.428Z,99739.34
2023-04-12T18:32:50.369Z,99736.81
2023-04-12T18:35:19.942Z,99743.09
2023-04-12T18:37:48.922Z,99745.06
2023-04-12T18:40:18.387Z,99749.53
2023-04-12T18:42:48.239Z,99752.31
2023-04-12T18:45:16.600Z,99760.31
2023-04-12T18:47:45.067Z,99761.25
2023-04-12T18:50:14.641Z,99760.47
2023-04-12T18:52:43.488Z,99761.44
2023-04-12T18:55:12.127Z,99771.13
2023-04-12T18:57:40.508Z,99768.56
2023-04-12T19:00:14.535Z,99766.00
2023-04-12T19:02:43.716Z,99767.84
2023-04-12T19:05:15.011Z,99764.44
2023-04-12T19:07:43.469Z,99762.75
2023-04-12T19:10:13.501Z,99763.75
2023-04-12T19:12:41.951Z,99755.16
2023-04-12T19:15:12.996Z,99758.78
2023-04-12T19:17:42.019Z,99765.03
2023-04-12T19:20:13.430Z,99772.13
2023-04-12T19:22:42.230Z,99767.00
2023-04-12T19:25:11.804Z,99768.91
2023-04-12T19:27:43.153Z,99765.59
2023-04-12T19:30:14.915Z,99769.16
2023-04-12T19:32:43.561Z,99769.28
2023-04-12T19:35:12.995Z,99772.91
2023-04-12T19:37:41.813Z,99766.03
2023-04-12T19:40:14.672Z,99774.91
2023-04-12T19:42:44.510Z,99777.56
2023-04-12T19:45:15.445Z,99777.66
2023-04-12T19:47:45.498Z,99772.50
2023-04-12T19:50:15.742Z,99775.16
2023-04-12T19:52:45.214Z,99777.81
2023-04-12T19:55:16.051Z,99776.13
2023-04-12T19:57:45.096Z,99777.91
2023-04-12T20:00:19.738Z,99768.41
2023-04-12T20:02:50.493Z,99769.31
2023-04-12T20:05:19.457Z,99766.78
2023-04-12T20:07:48.168Z,99765.09
2023-04-12T20:10:21.983Z,99766.91
2023-04-12T20:12:52.580Z,99773.88
2023-04-12T20:15:25.504Z,99765.22
2023-04-12T20:17:54.041Z,99767.03
2023-04-12T20:20:25.723Z,99763.59
2023-04-12T20:22:54.240Z,99757.53
2023-04-12T20:25:35.600Z,99756.75
2023-04-12T20:28:04.909Z,99761.16
2023-04-12T20:30:35.348Z,99761.19
2023-04-12T20:33:04.846Z,99766.44
2023-04-12T20:35:33.257Z,99765.56
2023-04-12T20:38:01.846Z,99762.13
2023-04-12T20:40:30.459Z,99762.97
2023-04-12T20:42:59.078Z,99759.53
2023-04-12T20:45:28.063Z,99759.59
2023-04-12T20:47:59.343Z,99750.06
2023-04-12T20:50:30.472Z,99754.41
2023-04-12T20:52:59.339Z,99745.75
2023-04-12T20:55:34.064Z,99749.25
2023-04-12T20:58:03.677Z,99757.13
2023-04-12T21:00:33.845Z,99754.53
2023-04-12T21:03:04.241Z,99746.72
2023-04-12T21:05:33.797Z,99747.59
2023-04-12T21:08:02.707Z,99739.81
2023-04-12T21:10:31.195Z,99738.06
2023-04-12T21:13:02.054Z,99740.69
2023-04-12T21:15:31.989Z,99744.19
2023-04-12T21:18:00.436Z,99741.59
2023-04-12T21:20:31.047Z,99739.00
2023-04-12T21:22:59.474Z,99739.88
2023-04-12T21:25:28.300Z,99737.28
2023-04-12T21:27:56.921Z,99733.81
2023-04-12T21:30:25.559Z,99731.22
2023-04-12T21:32:54.397Z,99726.91
2023-04-12T21:35:23.507Z,99721.72
2023-04-12T21:37:53.745Z,99719.97
2023-04-12T21:40:23.000Z,99713.03
2023-04-12T21:42:51.713Z,99713.91
2023-04-12T21:45:21.511Z,99706.97
2023-04-12T21:47:50.537Z,99710.44
2023-04-12T21:50:18.966Z,99706.13
2023-04-12T21:52:47.897Z,99707.84
2023-04-12T21:55:18.745Z,99706.97
2023-04-12T21:57:47.335Z,99699.19
2023-04-12T22:00:18.496Z,99700.91
2023-04-12T22:02:47.617Z,99698.34
2023-04-12T22:05:16.362Z,99693.97
2023-04-12T22:07:45.402Z,99697.44
2023-04-12T22:10:13.961Z,99698.31
2023-04-12T22:12:50.546Z,99703.50
2023-04-12T22:15:19.830Z,99700.06
2023-04-12T22:17:48.418Z,99699.19
2023-04-12T22:20:16.925Z,99693.09
2023-04-12T22:22:45.569Z,99687.91
2023-04-12T22:25:15.495Z,99683.56
2023-04-12T22:27:46.647Z,99680.97
2023-04-12T22:30:16.490Z,99693.09
2023-04-12T22:32:45.227Z,99691.41
2023-04-12T22:35:13.721Z,99679.25
2023-04-12T22:37:43.289Z,99672.28
2023-04-12T22:40:14.162Z,99676.63
2023-04-12T22:42:47.741Z,99661.91
2023-04-12T22:45:16.890Z,99664.50
2023-04-12T22:47:45.747Z,99665.34
2023-04-12T22:50:15.243Z,99667.06
2023-04-12T22:52:43.876Z,99653.22
2023-04-12T22:55:15.080Z,99644.53
2023-04-12T22:57:45.326Z,99641.94
2023-04-12T23:00:18.286Z,99628.94
2023-04-12T23:02:48.569Z,99631.56
2023-04-12T23:05:18.024Z,99615.94
2023-04-12T23:07:47.364Z,99615.94
2023-04-12T23:10:15.977Z,99615.06
2023-04-12T23:12:46.614Z,99605.53
2023-04-12T23:15:14.984Z,99603.78
2023-04-12T23:17:43.365Z,99608.13
2023-04-12T23:20:14.603Z,99607.25
2023-04-12T23:22:57.912Z,99601.19
2023-04-12T23:25:39.011Z,99598.59
2023-04-12T23:28:12.930Z,99580.41
2023-04-12T23:30:44.039Z,99588.19
2023-04-12T23:33:13.180Z,99582.13
2023-04-12T23:35:42.532Z,99580.38
2023-04-12T23:38:15.522Z,99576.06
2023-04-12T23:40:44.762Z,99575.19
2023-04-12T23:43:14.602Z,99571.72
2023-04-12T23:45:44.343Z,99574.31
2023-04-12T23:48:12.907Z,99567.38
2023-04-12T23:50:41.432Z,99564.78
2023-04-12T23:53:09.993Z,99560.44
2023-04-12T23:55:38.492Z,99558.69
2023-04-12T23:58:07.046Z,99550.91
